Time;durP1;ratioP1;P1;durP2;ratioP2;P2;SDS_P1;SDS_P2;PMS_P1;PMS_P2;Temp;Humidity;BMP_temperature;BMP_pressure;BME280_temperature;BME280_humidity;BME280_pressure;Samples;Min_cycle;Max_cycle;Signal;HPM_P1;HPM_P2
2021/03/25 00:00:31;;;;;;;36.67;19.87;;;;;;;;;;10384168;28;20232;-91
2021/03/25 00:05:35;;;;;;;43.13;20.30;;;;;;;;;;10383640;28;20212;-93
2021/03/25 00:10:38;;;;;;;39.73;19.47;;;;;;;;;;10387450;28;20236;-92
2021/03/25 00:15:40;;;;;;;33.43;19.07;;;;;;;;;;10381417;28;20433;-92
2021/03/25 00:20:42;;;;;;;45.63;20.07;;;;;;;;;;10381774;28;20245;-91
2021/03/25 00:25:45;;;;;;;44.93;21.57;;;;;;;;;;10375571;28;20216;-91
2021/03/25 00:30:47;;;;;;;39.37;19.20;;;;;;;;;;10385930;28;20253;-92
2021/03/25 00:35:49;;;;;;;38.27;20.60;;;;;;;;;;10381145;28;20220;-92
2021/03/25 00:41:00;;;;;;;38.27;20.10;;;;;;;;;;10383562;28;20242;-91
2021/03/25 00:46:02;;;;;;;38.73;22.00;;;;;;;;;;10385642;28;20218;-91
2021/03/25 00:51:04;;;;;;;44.13;23.37;;;;;;;;;;10381080;28;20598;-92
2021/03/25 00:56:07;;;;;;;44.37;22.47;;;;;;;;;;10384456;28;20702;-92
2021/03/25 01:01:09;;;;;;;44.17;22.73;;;;;;;;;;10402766;28;20266;-90
2021/03/25 01:06:12;;;;;;;43.60;22.93;;;;;;;;;;10395546;28;20278;-92
2021/03/25 01:11:16;;;;;;;45.63;23.47;;;;;;;;;;10376063;28;20283;-93
2021/03/25 01:16:20;;;;;;;48.23;23.27;;;;;;;;;;10384820;28;20231;-91
2021/03/25 01:21:23;;;;;;;42.63;23.00;;;;;;;;;;10385732;28;20239;-91
2021/03/25 01:26:26;;;;;;;52.97;26.30;;;;;;;;;;10391369;28;20603;-92
2021/03/25 01:31:28;;;;;;;48.63;25.30;;;;;;;;;;10387550;28;20216;-92
2021/03/25 01:36:30;;;;;;;50.70;26.13;;;;;;;;;;10388657;28;20296;-90
2021/03/25 01:41:35;;;;;;;52.80;26.40;;;;;;;;;;10391138;28;20345;-92
2021/03/25 01:46:38;;;;;;;57.43;27.77;;;;;;;;;;10389866;28;20216;-91
2021/03/25 02:09:43;;;;;;;51.80;26.67;;;;;;;;;;10396754;28;20227;-92
2021/03/25 02:14:48;;;;;;;57.53;27.93;;;;;;;;;;10373273;28;20236;-92
2021/03/25 02:20:03;;;;;;;51.57;26.73;;;;;;;;;;10386548;28;20254;-93
2021/03/25 02:25:08;;;;;;;53.33;26.80;;;;;;;;;;10387149;28;20226;-92
2021/03/25 02:30:11;;;;;;;50.33;26.90;;;;;;;;;;10389164;28;20305;-93
2021/03/25 02:35:17;;;;;;;53.83;26.63;;;;;;;;;;10391715;28;20275;-91
2021/03/25 02:40:22;;;;;;;53.40;26.20;;;;;;;;;;10393676;28;20232;-93
2021/03/25 02:45:26;;;;;;;52.73;26.80;;;;;;;;;;10406497;28;20208;-91
2021/03/25 02:50:31;;;;;;;48.93;24.90;;;;;;;;;;10409051;28;20212;-92
2021/03/25 02:55:33;;;;;;;49.97;25.67;;;;;;;;;;10434427;28;20204;-92
2021/03/25 03:00:37;;;;;;;50.67;25.80;;;;;;;;;;10430387;28;20255;-91
2021/03/25 03:05:41;;;;;;;48.60;24.70;;;;;;;;;;10435089;28;20212;-92
2021/03/25 03:10:45;;;;;;;50.80;26.67;;;;;;;;;;10411720;28;20256;-91
2021/03/25 03:15:49;;;;;;;52.90;25.53;;;;;;;;;;10392171;28;20216;-91
2021/03/25 03:20:54;;;;;;;50.90;27.00;;;;;;;;;;10389922;28;20242;-91
2021/03/25 03:25:58;;;;;;;50.10;26.87;;;;;;;;;;10390932;28;20684;-93
2021/03/25 03:31:01;;;;;;;55.30;27.27;;;;;;;;;;10385013;28;20255;-93
2021/03/25 03:36:06;;;;;;;56.30;27.43;;;;;;;;;;10383925;28;20204;-91
2021/03/25 03:41:08;;;;;;;52.93;27.87;;;;;;;;;;10381648;28;20241;-91
2021/03/25 03:46:13;;;;;;;51.97;27.57;;;;;;;;;;10386972;28;20208;-93
2021/03/25 03:51:21;;;;;;;61.13;30.27;;;;;;;;;;10388212;28;20211;-93
2021/03/25 03:56:27;;;;;;;59.30;30.50;;;;;;;;;;10385200;28;20759;-93
2021/03/25 04:01:34;;;;;;;63.10;31.07;;;;;;;;;;10385620;28;20259;-92
2021/03/25 04:06:38;;;;;;;69.67;31.70;;;;;;;;;;10382699;28;20224;-84
2021/03/25 04:11:42;;;;;;;64.20;30.53;;;;;;;;;;10363198;28;20242;-92
2021/03/25 04:16:45;;;;;;;61.97;31.67;;;;;;;;;;10387918;28;20439;-90
2021/03/25 04:21:51;;;;;;;61.23;31.70;;;;;;;;;;10381260;28;20274;-92
2021/03/25 04:26:58;;;;;;;65.20;31.67;;;;;;;;;;10390766;28;20220;-92
2021/03/25 04:32:01;;;;;;;66.40;33.50;;;;;;;;;;10386699;28;20274;-92
2021/03/25 04:37:05;;;;;;;63.40;32.60;;;;;;;;;;10386751;28;20217;-93
2021/03/25 04:42:08;;;;;;;66.53;33.23;;;;;;;;;;10383195;28;20236;-92
2021/03/25 04:47:14;;;;;;;64.70;34.10;;;;;;;;;;10386399;28;20204;-94
2021/03/25 04:52:18;;;;;;;69.97;34.50;;;;;;;;;;10372342;28;20216;-93
2021/03/25 04:57:23;;;;;;;70.10;35.80;;;;;;;;;;10392839;28;20219;-93
2021/03/25 05:02:25;;;;;;;78.17;37.50;;;;;;;;;;10406720;28;20235;-92
2021/03/25 05:07:30;;;;;;;75.30;38.10;;;;;;;;;;10400989;28;20299;-92
2021/03/25 05:12:32;;;;;;;73.20;37.83;;;;;;;;;;10399012;28;20269;-93
2021/03/25 05:17:36;;;;;;;72.37;38.03;;;;;;;;;;10394281;28;21039;-94
2021/03/25 05:22:42;;;;;;;73.53;37.73;;;;;;;;;;10393577;28;20228;-93
2021/03/25 05:27:48;;;;;;;75.60;39.00;;;;;;;;;;10393631;28;20233;-93
2021/03/25 05:32:51;;;;;;;78.93;38.43;;;;;;;;;;10396968;28;20684;-92
2021/03/25 05:37:54;;;;;;;74.27;38.17;;;;;;;;;;10394991;28;20217;-92
2021/03/25 05:42:58;;;;;;;75.00;37.03;;;;;;;;;;10392001;28;20347;-92
2021/03/25 05:48:27;;;;;;;69.63;35.07;;;;;;;;;;10402382;28;20252;-92
2021/03/25 05:53:41;;;;;;;73.97;35.97;;;;;;;;;;10398646;28;20213;-92
2021/03/25 05:58:45;;;;;;;68.70;35.20;;;;;;;;;;10405734;28;20670;-91
2021/03/25 06:03:54;;;;;;;71.10;34.07;;;;;;;;;;10418603;28;20220;-91
2021/03/25 06:09:00;;;;;;;69.73;33.87;;;;;;;;;;10439374;28;20224;-93
2021/03/25 06:14:06;;;;;;;63.37;32.67;;;;;;;;;;10382246;28;20295;-85
2021/03/25 06:19:22;;;;;;;71.83;33.20;;;;;;;;;;10379847;28;20216;-87
2021/03/25 06:24:39;;;;;;;65.50;33.00;;;;;;;;;;10370577;28;20228;-88
2021/03/25 06:29:43;;;;;;;64.10;33.00;;;;;;;;;;10377193;28;20766;-88
2021/03/25 06:34:53;;;;;;;60.87;30.37;;;;;;;;;;10386723;28;20212;-90
2021/03/25 06:39:57;;;;;;;62.57;33.87;;;;;;;;;;10380720;28;20733;-89
2021/03/25 06:45:02;;;;;;;68.40;32.83;;;;;;;;;;10376932;28;20232;-93
2021/03/25 06:50:05;;;;;;;67.03;31.77;;;;;;;;;;10389646;28;20200;-88
2021/03/25 06:55:12;;;;;;;60.40;30.97;;;;;;;;;;10372461;28;20205;-89
2021/03/25 07:00:15;;;;;;;60.73;31.27;;;;;;;;;;10382482;28;20246;-89
2021/03/25 07:05:22;;;;;;;57.23;30.00;;;;;;;;;;10378694;28;20310;-88
2021/03/25 07:10:24;;;;;;;59.60;30.80;;;;;;;;;;10391691;28;20228;-91
2021/03/25 07:15:26;;;;;;;57.17;29.43;;;;;;;;;;10379716;28;22044;-89
2021/03/25 07:20:29;;;;;;;57.47;29.93;;;;;;;;;;10385657;28;20830;-89
2021/03/25 07:25:33;;;;;;;59.40;29.87;;;;;;;;;;10375601;28;20213;-90
2021/03/25 07:30:40;;;;;;;58.77;29.27;;;;;;;;;;10382542;28;20216;-88
2021/03/25 07:35:43;;;;;;;52.70;28.70;;;;;;;;;;10376787;28;20262;-90
2021/03/25 07:40:46;;;;;;;51.90;28.93;;;;;;;;;;10385730;28;20621;-90
2021/03/25 07:46:04;;;;;;;51.83;28.80;;;;;;;;;;10387273;28;20564;-88
2021/03/25 07:51:10;;;;;;;54.97;29.07;;;;;;;;;;10385076;28;21728;-90
2021/03/25 07:56:14;;;;;;;52.17;27.87;;;;;;;;;;10378875;28;20212;-93
2021/03/25 08:01:29;;;;;;;54.33;28.73;;;;;;;;;;10370257;28;20239;-85
2021/03/25 08:06:33;;;;;;;49.47;26.70;;;;;;;;;;10379617;28;20601;-90
2021/03/25 08:11:49;;;;;;;52.57;26.57;;;;;;;;;;10380181;28;20274;-88
2021/03/25 08:16:53;;;;;;;46.70;25.23;;;;;;;;;;10384942;28;20224;-87
2021/03/25 08:21:59;;;;;;;51.10;25.13;;;;;;;;;;10375115;28;20321;-88
2021/03/25 08:27:11;;;;;;;53.97;26.13;;;;;;;;;;10379946;28;20226;-89
2021/03/25 08:32:19;;;;;;;44.47;24.37;;;;;;;;;;10394797;28;20220;-89
2021/03/25 08:37:36;;;;;;;50.80;25.97;;;;;;;;;;10405443;28;20223;-92
2021/03/25 08:42:40;;;;;;;46.77;24.83;;;;;;;;;;10436832;28;20240;-92
2021/03/25 08:47:47;;;;;;;45.83;24.53;;;;;;;;;;10436360;28;20215;-93
2021/03/25 08:52:50;;;;;;;48.40;25.07;;;;;;;;;;10432216;28;20224;-84
2021/03/25 08:57:56;;;;;;;44.57;23.93;;;;;;;;;;10403394;28;20196;-90
2021/03/25 09:03:00;;;;;;;46.33;24.37;;;;;;;;;;10419003;28;20258;-91
2021/03/25 09:24:05;;;;;;;42.90;25.13;;;;;;;;;;10563813;27;879712;-78
2021/03/25 09:29:11;;;;;;;44.70;24.47;;;;;;;;;;10548292;28;20249;-76
2021/03/25 09:34:33;;;;;;;42.27;23.53;;;;;;;;;;10540550;28;20217;-79
2021/03/25 09:39:37;;;;;;;41.97;22.70;;;;;;;;;;10539668;28;20324;-80
2021/03/25 09:44:42;;;;;;;40.33;21.93;;;;;;;;;;10576112;22;20658;-79
2021/03/25 09:50:16;;;;;;;39.27;22.80;;;;;;;;;;10569344;28;20243;-79
2021/03/25 09:55:29;;;;;;;44.40;24.13;;;;;;;;;;10579173;28;20236;-77
2021/03/25 10:01:03;;;;;;;36.50;21.47;;;;;;;;;;10572940;28;20235;-76
2021/03/25 10:06:28;;;;;;;35.50;19.37;;;;;;;;;;10564274;27;20727;-78
2021/03/25 10:17:41;;;;;;;27.90;15.97;;;;;;;;;;10459640;23;20304;-79
2021/03/25 10:22:44;;;;;;;24.57;15.47;;;;;;;;;;10437781;28;20260;-78
2021/03/25 10:28:04;;;;;;;26.47;14.37;;;;;;;;;;10412895;28;20860;-78
2021/03/25 10:33:07;;;;;;;22.67;13.40;;;;;;;;;;10425693;28;20223;-78
2021/03/25 10:38:13;;;;;;;23.00;13.00;;;;;;;;;;10417744;28;20621;-78
2021/03/25 10:43:18;;;;;;;17.87;11.00;;;;;;;;;;10415726;28;20234;-78
2021/03/25 10:48:25;;;;;;;15.03;10.33;;;;;;;;;;10418680;28;20215;-77
2021/03/25 11:05:17;;;;;;;12.93;8.87;;;;;;;;;;10421318;28;20753;-78
2021/03/25 11:10:20;;;;;;;15.90;8.67;;;;;;;;;;10417961;28;20212;-78
2021/03/25 11:15:27;;;;;;;17.30;10.23;;;;;;;;;;10412326;28;20805;-78
2021/03/25 11:20:30;;;;;;;17.00;11.60;;;;;;;;;;10421505;28;20310;-77
2021/03/25 11:25:33;;;;;;;20.63;13.43;;;;;;;;;;10421680;28;20716;-79
2021/03/25 11:36:43;;;;;;;28.23;16.80;;;;;;;;;;10414816;28;20816;-80
2021/03/25 11:41:45;;;;;;;29.20;16.80;;;;;;;;;;10415634;28;20584;-77
2021/03/25 11:46:49;;;;;;;58.67;30.27;;;;;;;;;;10413525;28;20218;-78
2021/03/25 11:51:59;;;;;;;44.90;24.50;;;;;;;;;;10413972;28;20277;-77
2021/03/25 11:57:03;;;;;;;40.83;21.20;;;;;;;;;;10398002;28;20825;-77
2021/03/25 12:02:23;;;;;;;38.00;20.87;;;;;;;;;;10402184;28;20232;-78
2021/03/25 12:07:26;;;;;;;36.87;20.17;;;;;;;;;;10418620;28;20212;-77
2021/03/25 12:12:27;;;;;;;33.20;18.40;;;;;;;;;;10412476;28;20216;-78
2021/03/25 12:17:30;;;;;;;32.80;17.70;;;;;;;;;;10408227;28;20226;-78
2021/03/25 12:22:36;;;;;;;29.87;16.93;;;;;;;;;;10401874;28;20235;-77
2021/03/25 12:27:37;;;;;;;28.77;16.23;;;;;;;;;;10403554;28;20208;-77
2021/03/25 12:32:40;;;;;;;28.83;15.27;;;;;;;;;;10402497;28;20215;-77
2021/03/25 12:37:45;;;;;;;22.83;13.83;;;;;;;;;;10398934;28;20253;-78
2021/03/25 12:42:48;;;;;;;23.93;14.17;;;;;;;;;;10402621;28;20235;-77
2021/03/25 12:47:51;;;;;;;24.67;14.50;;;;;;;;;;10402175;28;20214;-78
2021/03/25 12:52:53;;;;;;;19.43;13.43;;;;;;;;;;10406089;28;20578;-79
2021/03/25 12:57:57;;;;;;;20.30;12.90;;;;;;;;;;10405738;28;20682;-78
2021/03/25 13:03:00;;;;;;;22.23;12.90;;;;;;;;;;10405670;28;20235;-78
2021/03/25 13:08:02;;;;;;;19.03;11.33;;;;;;;;;;10416869;28;20221;-77
2021/03/25 13:13:05;;;;;;;16.27;9.80;;;;;;;;;;10420332;28;20245;-77
2021/03/25 13:18:07;;;;;;;16.20;8.47;;;;;;;;;;10416794;28;20270;-78
2021/03/25 13:23:10;;;;;;;16.20;8.13;;;;;;;;;;10404950;28;20449;-78
2021/03/25 13:28:14;;;;;;;12.03;7.37;;;;;;;;;;10408993;28;20250;-78
2021/03/25 13:33:17;;;;;;;12.73;7.50;;;;;;;;;;10412714;28;20220;-78
2021/03/25 13:38:21;;;;;;;15.40;7.20;;;;;;;;;;10412872;28;20333;-77
2021/03/25 13:43:24;;;;;;;16.17;5.87;;;;;;;;;;10412272;28;20780;-77
2021/03/25 13:48:28;;;;;;;14.20;4.90;;;;;;;;;;10411278;28;20203;-77
2021/03/25 13:53:32;;;;;;;9.70;4.27;;;;;;;;;;10415244;28;20223;-77
2021/03/25 13:58:34;;;;;;;8.93;4.07;;;;;;;;;;10407877;28;20220;-79
2021/03/25 14:03:40;;;;;;;9.43;3.77;;;;;;;;;;10419024;28;20922;-79
2021/03/25 14:08:41;;;;;;;12.47;4.57;;;;;;;;;;10423063;28;20598;-78
2021/03/25 14:13:44;;;;;;;10.43;3.20;;;;;;;;;;10418098;28;20251;-78
2021/03/25 14:18:48;;;;;;;8.37;3.40;;;;;;;;;;10421566;28;20242;-78
2021/03/25 14:23:54;;;;;;;8.23;3.00;;;;;;;;;;10415153;28;20244;-78
2021/03/25 14:28:55;;;;;;;6.97;2.83;;;;;;;;;;10426074;28;20216;-78
2021/03/25 14:33:59;;;;;;;8.90;3.00;;;;;;;;;;10425266;28;20214;-78
2021/03/25 14:39:01;;;;;;;6.17;2.77;;;;;;;;;;10417905;28;20638;-77
2021/03/25 14:44:03;;;;;;;10.20;2.97;;;;;;;;;;10419074;28;21111;-77
2021/03/25 14:49:06;;;;;;;9.00;2.60;;;;;;;;;;10421686;28;20223;-78
2021/03/25 14:54:20;;;;;;;6.47;2.23;;;;;;;;;;10430741;28;20617;-79
2021/03/25 14:59:22;;;;;;;6.83;2.10;;;;;;;;;;10409887;28;20231;-78
2021/03/25 15:04:25;;;;;;;6.87;2.30;;;;;;;;;;10417257;28;20987;-76
2021/03/25 15:09:27;;;;;;;9.73;2.10;;;;;;;;;;10409367;28;20239;-77
2021/03/25 15:14:29;;;;;;;6.40;2.33;;;;;;;;;;10413861;28;20326;-78
2021/03/25 15:19:32;;;;;;;6.97;2.00;;;;;;;;;;10419098;28;20303;-77
2021/03/25 15:24:50;;;;;;;5.20;2.10;;;;;;;;;;10418787;28;20211;-78
2021/03/25 15:29:54;;;;;;;6.40;1.83;;;;;;;;;;10418800;28;20223;-77
2021/03/25 15:34:57;;;;;;;3.87;1.60;;;;;;;;;;10419065;28;20337;-78
2021/03/25 15:39:59;;;;;;;7.97;1.80;;;;;;;;;;10415737;28;20366;-78
2021/03/25 15:45:04;;;;;;;6.47;1.77;;;;;;;;;;10410827;28;20752;-78
2021/03/25 15:50:08;;;;;;;3.63;1.50;;;;;;;;;;10418158;28;20220;-77
2021/03/25 15:55:11;;;;;;;4.30;1.57;;;;;;;;;;10419056;28;20218;-78
2021/03/25 16:00:26;;;;;;;5.40;1.93;;;;;;;;;;10410963;28;20231;-78
2021/03/25 16:05:29;;;;;;;5.70;1.80;;;;;;;;;;10417832;28;20231;-78
2021/03/25 16:10:31;;;;;;;6.60;2.40;;;;;;;;;;10417670;28;20207;-77
2021/03/25 16:15:34;;;;;;;5.40;2.47;;;;;;;;;;10405179;28;22896;-78
2021/03/25 16:20:41;;;;;;;6.77;2.03;;;;;;;;;;10415405;28;20610;-78
2021/03/25 16:25:43;;;;;;;4.57;2.00;;;;;;;;;;10417045;28;20210;-78
2021/03/25 16:30:45;;;;;;;3.53;1.80;;;;;;;;;;10416191;28;20222;-78
2021/03/25 16:35:48;;;;;;;9.53;2.20;;;;;;;;;;10418986;28;20482;-78
2021/03/25 16:40:51;;;;;;;5.60;2.27;;;;;;;;;;10415584;28;20330;-77
2021/03/25 16:45:55;;;;;;;6.23;2.10;;;;;;;;;;10413676;28;20694;-78
2021/03/25 16:50:59;;;;;;;7.27;2.70;;;;;;;;;;10419144;28;20260;-78
2021/03/25 16:56:02;;;;;;;9.33;2.97;;;;;;;;;;10417128;28;20215;-78
2021/03/25 17:01:04;;;;;;;8.30;3.07;;;;;;;;;;10417692;28;20271;-78
2021/03/25 17:06:07;;;;;;;7.20;3.13;;;;;;;;;;10415208;28;20208;-78
2021/03/25 17:11:11;;;;;;;6.77;3.40;;;;;;;;;;10411596;28;20231;-78
2021/03/25 17:16:13;;;;;;;10.63;4.40;;;;;;;;;;10405863;28;20234;-78
2021/03/25 17:21:16;;;;;;;7.23;3.03;;;;;;;;;;10398525;28;20223;-78
2021/03/25 17:26:20;;;;;;;6.60;3.23;;;;;;;;;;10408004;28;20230;-77
2021/03/25 17:31:23;;;;;;;7.77;3.20;;;;;;;;;;10407848;28;20736;-78
2021/03/25 17:36:29;;;;;;;6.00;2.90;;;;;;;;;;10421339;28;20620;-77
2021/03/25 17:41:51;;;;;;;16.47;4.13;;;;;;;;;;10414819;28;20242;-78
2021/03/25 17:46:53;;;;;;;5.93;3.00;;;;;;;;;;10412655;28;20734;-79
2021/03/25 17:51:59;;;;;;;9.37;3.30;;;;;;;;;;10408304;28;20212;-78
2021/03/25 17:57:23;;;;;;;10.80;3.27;;;;;;;;;;10403021;28;20216;-78
2021/03/25 18:02:25;;;;;;;5.93;2.90;;;;;;;;;;10403363;28;20240;-78
2021/03/25 18:07:29;;;;;;;10.37;3.23;;;;;;;;;;10395115;28;20501;-79
2021/03/25 18:12:36;;;;;;;9.03;3.03;;;;;;;;;;10404703;28;20231;-78
2021/03/25 18:17:38;;;;;;;8.07;2.70;;;;;;;;;;10405223;28;20223;-78
2021/03/25 18:22:42;;;;;;;9.20;3.40;;;;;;;;;;10404629;28;20704;-79
2021/03/25 18:27:45;;;;;;;11.70;3.47;;;;;;;;;;10403703;28;20230;-78
2021/03/25 18:32:47;;;;;;;7.87;3.90;;;;;;;;;;10406101;28;20340;-78
2021/03/25 18:38:06;;;;;;;10.77;3.60;;;;;;;;;;10400408;28;20216;-78
2021/03/25 18:43:11;;;;;;;9.30;3.83;;;;;;;;;;10395783;28;20231;-78
2021/03/25 18:48:19;;;;;;;11.53;4.43;;;;;;;;;;10400921;28;20700;-78
2021/03/25 18:53:30;;;;;;;10.63;4.33;;;;;;;;;;10396812;28;20724;-78
2021/03/25 18:58:33;;;;;;;13.47;4.57;;;;;;;;;;10391610;28;20219;-78
2021/03/25 19:03:36;;;;;;;11.33;4.00;;;;;;;;;;10397097;28;20321;-79
2021/03/25 19:15:06;;;;;;;11.30;4.17;;;;;;;;;;10388700;23;20247;-79
2021/03/25 19:20:13;;;;;;;10.53;4.30;;;;;;;;;;10454289;28;20248;-79
2021/03/25 19:25:16;;;;;;;11.77;4.27;;;;;;;;;;10452885;28;20480;-79
2021/03/25 19:30:19;;;;;;;12.13;4.17;;;;;;;;;;10447525;28;20323;-79
2021/03/25 19:35:26;;;;;;;13.80;4.90;;;;;;;;;;10451196;28;20227;-81
2021/03/25 19:40:32;;;;;;;15.50;4.27;;;;;;;;;;10451438;28;20239;-80
2021/03/25 19:45:36;;;;;;;12.43;4.87;;;;;;;;;;10450896;28;20602;-79
2021/03/25 19:50:39;;;;;;;12.70;4.93;;;;;;;;;;10449936;28;20210;-79
2021/03/25 19:55:55;;;;;;;11.80;4.33;;;;;;;;;;10449767;28;20207;-79
2021/03/25 20:00:58;;;;;;;9.83;4.20;;;;;;;;;;10450156;28;20231;-79
2021/03/25 20:06:17;;;;;;;14.77;4.83;;;;;;;;;;10444643;28;21074;-79
2021/03/25 20:11:19;;;;;;;10.23;3.80;;;;;;;;;;10436546;28;20223;-80
2021/03/25 20:16:22;;;;;;;9.60;3.33;;;;;;;;;;10444665;28;20266;-79
2021/03/25 20:21:46;;;;;;;8.40;3.20;;;;;;;;;;10441959;28;20240;-79
2021/03/25 20:32:10;;;;;;;7.73;2.57;;;;;;;;;;10444270;28;20475;-79
2021/03/25 20:37:27;;;;;;;9.40;2.70;;;;;;;;;;10442985;28;20211;-79
2021/03/25 20:42:30;;;;;;;5.77;2.37;;;;;;;;;;10439960;28;20730;-79
2021/03/25 20:47:34;;;;;;;5.70;2.30;;;;;;;;;;10445487;28;20211;-78
2021/03/25 20:52:43;;;;;;;7.53;2.20;;;;;;;;;;10444449;28;20203;-79
2021/03/25 20:57:46;;;;;;;5.00;1.90;;;;;;;;;;10445944;28;20249;-77
2021/03/25 21:02:52;;;;;;;7.47;2.30;;;;;;;;;;10448074;28;20227;-79
2021/03/25 21:07:55;;;;;;;7.67;2.07;;;;;;;;;;10447462;28;20210;-78
2021/03/25 21:12:58;;;;;;;9.77;2.40;;;;;;;;;;10444535;28;20328;-78
2021/03/25 21:18:02;;;;;;;5.47;2.30;;;;;;;;;;10426283;28;20211;-79
2021/03/25 21:23:05;;;;;;;10.90;2.40;;;;;;;;;;10446485;28;20241;-79
2021/03/25 21:28:08;;;;;;;8.90;2.20;;;;;;;;;;10440832;28;20691;-80
2021/03/25 21:33:16;;;;;;;8.07;2.40;;;;;;;;;;10446226;28;20218;-80
2021/03/25 21:38:19;;;;;;;8.80;2.57;;;;;;;;;;10444379;28;20234;-80
2021/03/25 21:43:30;;;;;;;9.27;2.43;;;;;;;;;;10444841;28;21211;-80
2021/03/25 21:48:34;;;;;;;6.47;2.20;;;;;;;;;;10445198;28;20687;-79
2021/03/25 21:53:38;;;;;;;8.77;2.73;;;;;;;;;;10449845;28;20707;-79
2021/03/25 21:58:40;;;;;;;11.70;2.57;;;;;;;;;;10437269;28;20298;-79
2021/03/25 22:03:49;;;;;;;8.03;2.80;;;;;;;;;;10443383;28;20237;-79
2021/03/25 22:09:01;;;;;;;7.23;2.30;;;;;;;;;;10441920;28;20203;-80
2021/03/25 22:14:04;;;;;;;9.43;2.90;;;;;;;;;;10443713;28;20230;-79
2021/03/25 22:19:18;;;;;;;9.27;2.90;;;;;;;;;;10449506;28;20280;-79
2021/03/25 22:24:21;;;;;;;13.73;3.50;;;;;;;;;;10451168;28;20411;-79
2021/03/25 22:29:23;;;;;;;6.93;2.70;;;;;;;;;;10448533;28;20310;-78
2021/03/25 22:34:26;;;;;;;8.50;3.13;;;;;;;;;;10453972;28;20217;-79
2021/03/25 22:39:28;;;;;;;9.53;3.37;;;;;;;;;;10456159;28;20306;-79
2021/03/25 22:44:31;;;;;;;9.83;3.33;;;;;;;;;;10447560;28;20237;-79
2021/03/25 22:49:35;;;;;;;10.43;3.47;;;;;;;;;;10447687;28;20211;-79
2021/03/25 22:54:37;;;;;;;11.80;3.30;;;;;;;;;;10451691;28;20340;-79
2021/03/25 22:59:43;;;;;;;10.70;3.43;;;;;;;;;;10451657;28;20664;-79
2021/03/25 23:04:46;;;;;;;10.00;3.33;;;;;;;;;;10453795;28;20266;-79
2021/03/25 23:09:48;;;;;;;9.30;3.10;;;;;;;;;;10451214;28;20276;-79
2021/03/25 23:14:54;;;;;;;7.13;3.03;;;;;;;;;;10453947;28;20239;-78
2021/03/25 23:20:05;;;;;;;12.30;3.40;;;;;;;;;;10449101;28;20716;-78
2021/03/25 23:25:16;;;;;;;9.10;3.10;;;;;;;;;;10455483;28;20332;-79
2021/03/25 23:30:19;;;;;;;10.23;3.23;;;;;;;;;;10445032;28;20288;-78
2021/03/25 23:35:24;;;;;;;12.07;3.17;;;;;;;;;;10453294;28;20210;-79
2021/03/25 23:40:27;;;;;;;8.23;2.90;;;;;;;;;;10451708;28;20674;-78
2021/03/25 23:45:30;;;;;;;10.97;3.37;;;;;;;;;;10455335;28;20810;-78
2021/03/25 23:50:36;;;;;;;9.40;3.20;;;;;;;;;;10451823;28;20211;-78
2021/03/25 23:55:40;;;;;;;11.10;3.63;;;;;;;;;;10452995;28;20215;-79
